createdAt,value
2018-12-13T00:00:22.171Z,0
2018-12-13T00:01:30.027Z,0
2018-12-13T00:02:38.472Z,0
2018-12-13T00:03:46.109Z,0
2018-12-13T00:04:54.174Z,0
2018-12-13T00:06:02.233Z,0
2018-12-13T00:07:10.289Z,0
2018-12-13T00:08:18.661Z,0
2018-12-13T00:09:26.414Z,0
2018-12-13T00:10:34.556Z,0
2018-12-13T00:11:42.962Z,0
2018-12-13T00:12:50.630Z,0
2018-12-13T00:13:58.844Z,0
2018-12-13T00:15:06.663Z,0
2018-12-13T00:16:14.718Z,0
2018-12-13T00:17:22.758Z,0
2018-12-13T00:18:30.873Z,0
2018-12-13T00:19:38.873Z,0
2018-12-13T00:20:46.940Z,0
2018-12-13T00:21:54.957Z,0
2018-12-13T00:23:03.305Z,0
2018-12-13T00:24:11.081Z,0
2018-12-13T00:25:19.157Z,0
2018-12-13T00:26:27.197Z,0
2018-12-13T00:27:35.229Z,0
2018-12-13T00:28:43.310Z,0
2018-12-13T00:29:51.363Z,0
2018-12-13T00:30:59.380Z,0
2018-12-13T00:32:07.452Z,0
2018-12-13T00:33:15.478Z,0
2018-12-13T00:34:23.577Z,0
2018-12-13T00:35:33.077Z,0
2018-12-13T00:36:39.882Z,0
2018-12-13T00:37:47.750Z,0
2018-12-13T00:38:55.790Z,0
2018-12-13T00:40:04.491Z,0
2018-12-13T00:41:11.887Z,0
2018-12-13T00:42:20.132Z,0
2018-12-13T00:43:28.011Z,0
2018-12-13T00:44:36.041Z,0
2018-12-13T00:45:44.156Z,0
2018-12-13T00:46:52.147Z,0
2018-12-13T00:48:00.205Z,0
2018-12-13T00:49:08.257Z,0
2018-12-13T00:50:16.696Z,0
2018-12-13T00:51:24.727Z,0
2018-12-13T00:52:32.750Z,0
2018-12-13T00:53:40.781Z,0
2018-12-13T00:54:48.859Z,0
2018-12-13T00:55:56.577Z,0
2018-12-13T00:57:04.737Z,0
2018-12-13T00:58:12.684Z,0
2018-12-13T00:59:20.747Z,0
2018-12-13T01:00:29.193Z,0
2018-12-13T01:01:36.831Z,0
2018-12-13T01:02:44.878Z,0
2018-12-13T01:03:53.285Z,0
2018-12-13T01:05:01.002Z,0
2018-12-13T01:06:09.056Z,0
2018-12-13T01:07:17.122Z,0
2018-12-13T01:08:25.124Z,0
2018-12-13T01:09:33.207Z,0
2018-12-13T01:10:41.282Z,0
2018-12-13T01:11:49.344Z,0
2018-12-13T01:12:57.402Z,0
2018-12-13T01:14:05.407Z,0
2018-12-13T01:15:13.460Z,0
2018-12-13T01:16:21.534Z,0
2018-12-13T01:17:29.605Z,0
2018-12-13T01:18:37.904Z,0
2018-12-13T01:19:45.671Z,0
2018-12-13T01:20:53.755Z,0
2018-12-13T01:22:01.799Z,0
2018-12-13T01:23:09.852Z,0
2018-12-13T01:24:17.946Z,0
2018-12-13T01:25:25.969Z,0
2018-12-13T01:26:34.023Z,0
2018-12-13T01:27:42.068Z,0
2018-12-13T01:28:50.131Z,0
2018-12-13T01:29:58.184Z,0
2018-12-13T01:31:06.226Z,0
2018-12-13T01:32:14.288Z,0
2018-12-13T01:33:22.324Z,0
2018-12-13T01:34:30.392Z,0
2018-12-13T01:35:38.545Z,0
2018-12-13T01:36:52.226Z,0
2018-12-13T01:37:54.556Z,0
2018-12-13T01:39:02.607Z,0
2018-12-13T01:40:10.644Z,0
2018-12-13T01:41:18.704Z,0
2018-12-13T01:42:26.757Z,0
2018-12-13T01:43:34.795Z,0
2018-12-13T01:44:42.850Z,0
2018-12-13T01:45:50.904Z,0
2018-12-13T01:46:58.969Z,0
2018-12-13T01:48:07.016Z,0
2018-12-13T01:49:15.041Z,0
2018-12-13T01:50:23.118Z,0
2018-12-13T01:51:31.184Z,0
2018-12-13T01:52:39.217Z,0
2018-12-13T01:53:47.286Z,0
2018-12-13T01:54:55.301Z,0
2018-12-13T01:56:03.400Z,0
2018-12-13T01:57:11.435Z,0
2018-12-13T01:58:19.505Z,0
2018-12-13T01:59:27.549Z,0
2018-12-13T02:00:35.576Z,0
2018-12-13T02:01:43.662Z,0
2018-12-13T02:02:51.707Z,0
2018-12-13T02:03:59.762Z,0
2018-12-13T02:05:07.812Z,0
2018-12-13T02:06:15.853Z,0
2018-12-13T02:07:23.953Z,0
2018-12-13T02:08:32.000Z,0
2018-12-13T02:09:40.032Z,0
2018-12-13T02:10:48.075Z,0
2018-12-13T02:11:56.140Z,0
2018-12-13T02:13:04.173Z,0
2018-12-13T02:14:12.248Z,0
2018-12-13T02:15:20.285Z,0
2018-12-13T02:16:28.329Z,0
2018-12-13T02:17:36.394Z,0
2018-12-13T02:18:44.462Z,0
2018-12-13T02:19:52.502Z,0
2018-12-13T02:21:00.564Z,0
2018-12-13T02:22:08.615Z,0
2018-12-13T02:23:16.667Z,0
2018-12-13T02:24:24.695Z,0
2018-12-13T02:25:32.761Z,0
2018-12-13T02:26:40.826Z,0
2018-12-13T02:27:48.873Z,0
2018-12-13T02:28:56.925Z,0
2018-12-13T02:30:04.954Z,0
2018-12-13T02:31:13.030Z,0
2018-12-13T02:32:21.082Z,0
2018-12-13T02:33:29.139Z,0
2018-12-13T02:34:37.196Z,0
2018-12-13T02:35:45.213Z,0
2018-12-13T02:36:53.303Z,0
2018-12-13T02:38:01.355Z,0
2018-12-13T02:39:09.410Z,0
2018-12-13T02:40:17.451Z,0
2018-12-13T02:41:25.489Z,0
2018-12-13T02:42:33.559Z,0
2018-12-13T02:43:41.615Z,0
2018-12-13T02:44:49.655Z,0
2018-12-13T02:45:57.737Z,0
2018-12-13T02:47:05.756Z,0
2018-12-13T02:48:13.837Z,0
2018-12-13T02:49:21.879Z,0
2018-12-13T02:50:29.937Z,0
2018-12-13T02:51:37.992Z,0
2018-12-13T02:52:46.036Z,0
2018-12-13T02:53:54.097Z,0
2018-12-13T02:55:02.164Z,0
2018-12-13T02:56:10.206Z,0
2018-12-13T02:57:18.255Z,0
2018-12-13T02:58:26.319Z,0
2018-12-13T02:59:34.379Z,0
2018-12-13T03:00:42.416Z,0
2018-12-13T03:01:50.472Z,0
2018-12-13T03:02:58.522Z,0
2018-12-13T03:04:06.587Z,0
2018-12-13T03:05:14.631Z,0
2018-12-13T03:06:22.684Z,0
2018-12-13T03:07:30.731Z,0
2018-12-13T03:08:38.795Z,0
2018-12-13T03:09:46.840Z,0
2018-12-13T03:10:54.877Z,0
2018-12-13T03:12:02.944Z,0
2018-12-13T03:13:11.002Z,0
2018-12-13T03:14:19.051Z,0
2018-12-13T03:15:27.086Z,0
2018-12-13T03:16:35.125Z,0
2018-12-13T03:17:43.221Z,0
2018-12-13T03:18:51.265Z,0
2018-12-13T03:19:59.314Z,0
2018-12-13T03:21:07.374Z,0
2018-12-13T03:22:15.402Z,0
2018-12-13T03:23:23.470Z,0
2018-12-13T03:24:31.526Z,0
2018-12-13T03:25:39.583Z,0
2018-12-13T03:26:47.655Z,0
2018-12-13T03:27:55.654Z,0
2018-12-13T03:29:03.736Z,0
2018-12-13T03:30:11.793Z,0
2018-12-13T03:31:19.858Z,0
2018-12-13T03:32:27.903Z,0
2018-12-13T03:33:35.946Z,0
2018-12-13T03:34:44.003Z,0
2018-12-13T03:35:52.070Z,0
2018-12-13T03:37:00.123Z,0
2018-12-13T03:38:08.169Z,0
2018-12-13T03:39:16.227Z,0
2018-12-13T03:40:24.285Z,0
2018-12-13T03:41:32.316Z,0
2018-12-13T03:42:40.395Z,0
2018-12-13T03:43:48.429Z,0
2018-12-13T03:44:56.497Z,0
2018-12-13T03:46:04.544Z,0
2018-12-13T03:47:12.602Z,0
2018-12-13T03:48:20.651Z,0
2018-12-13T03:49:28.699Z,0
2018-12-13T03:50:36.758Z,0
2018-12-13T03:51:44.796Z,0
2018-12-13T03:52:52.867Z,0
2018-12-13T03:54:00.903Z,0
2018-12-13T03:55:08.963Z,0
2018-12-13T03:56:17.031Z,0
2018-12-13T03:57:25.037Z,0
2018-12-13T03:58:33.118Z,0
2018-12-13T03:59:41.174Z,0
2018-12-13T04:00:49.227Z,0
2018-12-13T04:01:57.290Z,0
2018-12-13T04:03:05.313Z,0
2018-12-13T04:04:13.393Z,0
2018-12-13T04:05:21.428Z,0
2018-12-13T04:06:29.509Z,0
2018-12-13T04:07:37.555Z,0
2018-12-13T04:08:45.573Z,0
2018-12-13T04:09:53.651Z,0
2018-12-13T04:11:01.726Z,0
2018-12-13T04:12:09.797Z,0
2018-12-13T04:13:17.805Z,0
2018-12-13T04:14:25.843Z,0
2018-12-13T04:15:33.909Z,0
2018-12-13T04:16:41.974Z,0
2018-12-13T04:17:50.023Z,0
2018-12-13T04:18:58.085Z,0
2018-12-13T04:20:06.120Z,0
2018-12-13T04:21:14.178Z,0
2018-12-13T04:22:22.230Z,0
2018-12-13T04:23:30.285Z,0
2018-12-13T04:24:38.338Z,0
2018-12-13T04:25:46.405Z,0
2018-12-13T04:26:54.452Z,0
2018-12-13T04:28:02.500Z,0
2018-12-13T04:29:10.552Z,0
2018-12-13T04:30:18.619Z,0
2018-12-13T04:31:26.655Z,0
2018-12-13T04:32:34.708Z,0
2018-12-13T04:33:42.765Z,0
2018-12-13T04:34:50.821Z,0
2018-12-13T04:35:58.861Z,0
2018-12-13T04:37:06.919Z,0
2018-12-13T04:38:14.941Z,0
2018-12-13T04:39:23.030Z,0
2018-12-13T04:40:31.095Z,0
2018-12-13T04:41:39.140Z,0
2018-12-13T04:42:47.182Z,0
2018-12-13T04:43:55.229Z,0
2018-12-13T04:45:03.276Z,0
2018-12-13T04:46:11.338Z,0
2018-12-13T04:47:19.403Z,0
2018-12-13T04:48:27.449Z,0
2018-12-13T04:49:35.469Z,0
2018-12-13T04:50:43.556Z,0
2018-12-13T04:51:51.601Z,0
2018-12-13T04:52:59.648Z,0
2018-12-13T04:54:07.715Z,0
2018-12-13T04:55:15.732Z,0
2018-12-13T04:56:23.809Z,0
2018-12-13T04:57:31.883Z,0
2018-12-13T04:58:39.929Z,0
2018-12-13T04:59:47.975Z,0
2018-12-13T05:00:56.026Z,0
2018-12-13T05:02:04.088Z,0
2018-12-13T05:03:12.126Z,0
2018-12-13T05:04:20.181Z,0
2018-12-13T05:05:28.236Z,0
2018-12-13T05:06:36.296Z,0
2018-12-13T05:07:44.351Z,0
2018-12-13T05:08:52.399Z,0
2018-12-13T05:10:00.443Z,0
2018-12-13T05:11:08.547Z,0
2018-12-13T05:12:16.584Z,0
2018-12-13T05:13:24.602Z,0
2018-12-13T05:14:32.663Z,0
2018-12-13T05:15:40.716Z,0
2018-12-13T05:16:48.778Z,0
2018-12-13T05:17:56.829Z,0
2018-12-13T05:19:04.876Z,0
2018-12-13T05:20:12.949Z,0
2018-12-13T05:21:20.967Z,0
2018-12-13T05:22:29.035Z,0
2018-12-13T05:23:37.084Z,0
2018-12-13T05:24:45.114Z,0
2018-12-13T05:25:53.194Z,0
2018-12-13T05:27:01.244Z,0
2018-12-13T05:28:09.294Z,0
2018-12-13T05:29:17.352Z,0
2018-12-13T05:30:25.375Z,0
2018-12-13T05:31:33.454Z,0
2018-12-13T05:32:41.504Z,0
2018-12-13T05:33:49.567Z,0
2018-12-13T05:34:57.609Z,0
2018-12-13T05:36:05.642Z,0
2018-12-13T05:37:13.706Z,0
2018-12-13T05:38:21.786Z,0
2018-12-13T05:39:29.816Z,0
2018-12-13T05:40:37.930Z,0
2018-12-13T05:41:45.937Z,0
2018-12-13T05:42:53.994Z,0
2018-12-13T05:44:02.047Z,0
2018-12-13T05:45:10.073Z,0
2018-12-13T05:46:18.135Z,0
2018-12-13T05:47:26.202Z,0
2018-12-13T05:48:34.274Z,0
2018-12-13T05:49:42.311Z,0
2018-12-13T05:50:50.342Z,0
2018-12-13T05:51:58.414Z,0
2018-12-13T05:53:06.461Z,0
2018-12-13T05:54:14.523Z,0
2018-12-13T05:55:22.552Z,0
2018-12-13T05:56:30.632Z,0
2018-12-13T05:57:38.671Z,0
2018-12-13T05:58:46.733Z,0
2018-12-13T05:59:54.781Z,0
2018-12-13T06:01:02.842Z,0
2018-12-13T06:02:10.894Z,0
2018-12-13T06:03:18.931Z,0
2018-12-13T06:04:26.982Z,0
2018-12-13T06:05:35.019Z,0
2018-12-13T06:06:43.098Z,0
2018-12-13T06:07:54.761Z,0
2018-12-13T06:08:59.223Z,0
2018-12-13T06:10:07.260Z,0
2018-12-13T06:11:15.281Z,0
2018-12-13T06:12:23.371Z,0
2018-12-13T06:13:31.409Z,0
2018-12-13T06:14:39.470Z,0
2018-12-13T06:15:47.523Z,0
2018-12-13T06:16:55.548Z,0
2018-12-13T06:18:06.743Z,0
2018-12-13T06:19:11.683Z,0
2018-12-13T06:20:19.730Z,0
2018-12-13T06:21:27.787Z,0
2018-12-13T06:22:35.813Z,0
2018-12-13T06:23:43.902Z,0
2018-12-13T06:24:51.933Z,0
2018-12-13T06:25:59.997Z,0
2018-12-13T06:27:08.037Z,0
2018-12-13T06:28:16.107Z,0
2018-12-13T06:29:24.161Z,0
2018-12-13T06:30:32.203Z,0
2018-12-13T06:31:40.262Z,0
2018-12-13T06:32:48.318Z,0
2018-12-13T06:33:56.369Z,0
2018-12-13T06:35:04.414Z,0
2018-12-13T06:36:12.475Z,0
2018-12-13T06:37:20.529Z,0
2018-12-13T06:38:28.597Z,0
2018-12-13T06:39:36.633Z,0
2018-12-13T06:40:44.688Z,0
2018-12-13T06:41:52.755Z,0
2018-12-13T06:43:00.788Z,0
2018-12-13T06:44:08.841Z,0
2018-12-13T06:45:16.887Z,0
2018-12-13T06:46:24.941Z,0
2018-12-13T06:47:33.162Z,0
2018-12-13T06:48:41.049Z,0
2018-12-13T06:49:49.092Z,0
2018-12-13T06:50:57.168Z,0
2018-12-13T06:52:05.180Z,0
2018-12-13T06:53:13.259Z,0
2018-12-13T06:54:21.314Z,0
2018-12-13T06:55:29.400Z,0
2018-12-13T06:56:37.424Z,0
2018-12-13T06:57:45.457Z,0
2018-12-13T06:58:53.560Z,0
2018-12-13T07:00:01.570Z,0
2018-12-13T07:01:09.645Z,0
2018-12-13T07:02:17.730Z,0
2018-12-13T07:03:25.728Z,0
2018-12-13T07:04:33.813Z,0
2018-12-13T07:05:41.857Z,0
2018-12-13T07:06:49.952Z,0
2018-12-13T07:07:57.946Z,0
2018-12-13T07:09:06.010Z,0
2018-12-13T07:10:14.062Z,5
2018-12-13T07:11:22.701Z,5
2018-12-13T07:12:30.162Z,5
2018-12-13T07:13:38.233Z,5
2018-12-13T07:14:46.277Z,0
2018-12-13T07:15:54.318Z,0
2018-12-13T07:17:02.647Z,0
2018-12-13T07:18:10.524Z,0
2018-12-13T07:19:18.514Z,0
2018-12-13T07:20:26.739Z,0
2018-12-13T07:21:34.864Z,0
2018-12-13T07:22:42.841Z,0
2018-12-13T07:23:51.228Z,5
2018-12-13T07:24:58.908Z,5
2018-12-13T07:26:06.904Z,5
2018-12-13T07:27:15.227Z,10
2018-12-13T07:28:24.679Z,10
2018-12-13T07:29:31.292Z,15
2018-12-13T07:30:39.362Z,15
2018-12-13T07:31:47.090Z,25
2018-12-13T07:32:55.187Z,25
2018-12-13T07:34:03.372Z,15
2018-12-13T07:35:11.751Z,15
2018-12-13T07:36:19.490Z,20
2018-12-13T07:37:27.336Z,25
2018-12-13T07:38:37.295Z,15
2018-12-13T07:39:43.433Z,20
2018-12-13T07:40:51.489Z,30
2018-12-13T07:41:59.692Z,30
2018-12-13T07:43:07.636Z,30
2018-12-13T07:44:15.947Z,35
2018-12-13T07:45:23.764Z,30
2018-12-13T07:46:31.978Z,30
2018-12-13T07:47:39.881Z,35
2018-12-13T07:48:47.857Z,35
2018-12-13T07:49:55.919Z,25
2018-12-13T07:51:04.008Z,20
2018-12-13T07:52:12.018Z,20
2018-12-13T07:53:21.655Z,20
2018-12-13T07:54:28.134Z,30
2018-12-13T07:55:36.196Z,25
2018-12-13T07:56:44.234Z,20
2018-12-13T07:57:52.292Z,20
2018-12-13T07:59:00.575Z,20
2018-12-13T08:00:08.964Z,25
2018-12-13T08:01:16.595Z,20
2018-12-13T08:02:24.497Z,25
2018-12-13T08:03:32.568Z,25
2018-12-13T08:04:40.600Z,20
2018-12-13T08:05:48.657Z,25
2018-12-13T08:06:56.710Z,20
2018-12-13T08:08:04.759Z,15
2018-12-13T08:09:12.814Z,15
2018-12-13T08:10:20.871Z,20
2018-12-13T08:11:28.929Z,20
2018-12-13T08:12:37.007Z,25
2018-12-13T08:13:45.015Z,25
2018-12-13T08:14:53.362Z,25
2018-12-13T08:16:01.351Z,30
2018-12-13T08:17:09.611Z,25
2018-12-13T08:18:17.252Z,25
2018-12-13T08:19:25.295Z,35
2018-12-13T08:20:33.835Z,30
2018-12-13T08:21:41.874Z,35
2018-12-13T08:22:49.921Z,25
2018-12-13T08:23:58.169Z,30
2018-12-13T08:25:05.552Z,35
2018-12-13T08:26:13.847Z,45
2018-12-13T08:27:21.692Z,40
2018-12-13T08:28:29.731Z,50
2018-12-13T08:29:37.804Z,55
2018-12-13T08:30:46.186Z,70
2018-12-13T08:31:53.895Z,60
2018-12-13T08:33:02.079Z,60
2018-12-13T08:34:09.995Z,75
2018-12-13T08:35:18.061Z,95
2018-12-13T08:36:26.103Z,90
2018-12-13T08:37:34.167Z,60
2018-12-13T08:38:42.199Z,50
2018-12-13T08:39:50.270Z,75
2018-12-13T08:40:58.323Z,90
2018-12-13T08:42:06.385Z,60
2018-12-13T08:43:14.451Z,65
2018-12-13T08:44:22.487Z,90
2018-12-13T08:45:30.537Z,60
2018-12-13T08:46:38.589Z,55
2018-12-13T08:47:46.636Z,45
2018-12-13T08:48:54.700Z,45
2018-12-13T08:50:02.741Z,45
2018-12-13T08:51:10.792Z,50
2018-12-13T08:52:18.852Z,65
2018-12-13T08:53:26.925Z,70
2018-12-13T08:54:34.948Z,70
2018-12-13T08:55:43.013Z,45
2018-12-13T08:56:51.439Z,50
2018-12-13T08:57:59.117Z,45
2018-12-13T08:59:07.169Z,45
2018-12-13T09:00:15.198Z,45
2018-12-13T09:01:23.269Z,50
2018-12-13T09:02:31.330Z,70
2018-12-13T09:03:39.387Z,85
2018-12-13T09:04:47.438Z,80
2018-12-13T09:05:55.474Z,75
2018-12-13T09:07:03.541Z,80
2018-12-13T09:08:11.594Z,90
2018-12-13T09:09:19.639Z,90
2018-12-13T09:10:27.707Z,105
2018-12-13T09:11:35.736Z,140
2018-12-13T09:12:43.796Z,110
2018-12-13T09:13:51.869Z,115
2018-12-13T09:14:59.941Z,105
2018-12-13T09:16:07.965Z,155
2018-12-13T09:17:16.013Z,185
2018-12-13T09:18:24.074Z,180
2018-12-13T09:19:32.781Z,185
2018-12-13T09:20:40.198Z,175
2018-12-13T09:21:48.233Z,165
2018-12-13T09:22:56.295Z,170
2018-12-13T09:24:04.339Z,150
2018-12-13T09:25:12.391Z,135
2018-12-13T09:26:20.751Z,135
2018-12-13T09:27:28.515Z,125
2018-12-13T09:28:36.548Z,120
2018-12-13T09:29:44.631Z,115
2018-12-13T09:30:52.661Z,100
2018-12-13T09:32:01.031Z,100
2018-12-13T09:33:08.781Z,90
2018-12-13T09:34:16.819Z,85
2018-12-13T09:35:25.360Z,90
2018-12-13T09:36:32.930Z,90
2018-12-13T09:37:47.234Z,90
2018-12-13T09:38:49.039Z,80
2018-12-13T09:39:57.104Z,80
2018-12-13T09:41:05.116Z,75
2018-12-13T09:42:13.483Z,80
2018-12-13T09:43:21.595Z,90
2018-12-13T09:44:29.502Z,90
2018-12-13T09:45:37.357Z,95
2018-12-13T09:46:45.545Z,100
2018-12-13T09:47:53.477Z,110
2018-12-13T09:49:01.989Z,130
2018-12-13T09:50:09.712Z,155
2018-12-13T09:51:17.948Z,145
2018-12-13T09:52:25.701Z,145
2018-12-13T09:53:33.739Z,145
2018-12-13T09:54:42.026Z,140
2018-12-13T09:55:51.300Z,135
2018-12-13T09:56:57.909Z,125
2018-12-13T09:58:05.969Z,125
2018-12-13T09:59:14.093Z,130
2018-12-13T10:00:22.058Z,125
2018-12-13T10:01:30.223Z,130
2018-12-13T10:02:38.173Z,130
2018-12-13T10:03:46.386Z,135
2018-12-13T10:04:54.273Z,140
2018-12-13T10:06:02.340Z,140
2018-12-13T10:07:10.392Z,140
2018-12-13T10:08:18.430Z,155
2018-12-13T10:09:26.492Z,155
2018-12-13T10:10:34.566Z,155
2018-12-13T10:11:42.608Z,165
2018-12-13T10:12:50.826Z,160
2018-12-13T10:13:58.697Z,170
2018-12-13T10:15:07.294Z,190
2018-12-13T10:16:15.182Z,175
2018-12-13T10:17:22.858Z,165
2018-12-13T10:18:30.919Z,170
2018-12-13T10:19:39.515Z,175
2018-12-13T10:20:47.031Z,170
2018-12-13T10:21:55.279Z,160
2018-12-13T10:23:03.150Z,155
2018-12-13T10:24:11.194Z,155
2018-12-13T10:25:19.442Z,160
2018-12-13T10:26:27.416Z,155
2018-12-13T10:27:35.330Z,175
2018-12-13T10:28:43.423Z,180
2018-12-13T10:29:51.473Z,175
2018-12-13T10:30:59.510Z,185
2018-12-13T10:32:07.590Z,185
2018-12-13T10:33:15.612Z,185
2018-12-13T10:34:23.685Z,175
2018-12-13T10:35:31.719Z,175
2018-12-13T10:36:39.786Z,175
2018-12-13T10:37:47.836Z,155
2018-12-13T10:38:55.878Z,140
2018-12-13T10:40:03.943Z,130
2018-12-13T10:41:12.355Z,130
2018-12-13T10:42:20.065Z,135
2018-12-13T10:43:28.130Z,140
2018-12-13T10:44:36.161Z,130
2018-12-13T10:45:44.224Z,120
2018-12-13T10:46:52.298Z,125
2018-12-13T10:48:00.320Z,120
2018-12-13T10:49:08.977Z,105
2018-12-13T10:50:16.837Z,80
2018-12-13T10:51:24.850Z,65
2018-12-13T10:52:32.557Z,60
2018-12-13T10:53:40.712Z,65
2018-12-13T10:54:48.889Z,70
2018-12-13T10:55:56.716Z,80
2018-12-13T10:57:04.769Z,80
2018-12-13T10:58:13.200Z,100
2018-12-13T10:59:20.872Z,85
2018-12-13T11:00:28.928Z,90
2018-12-13T11:01:37.490Z,90
2018-12-13T11:02:45.132Z,95
2018-12-13T11:03:53.262Z,100
2018-12-13T11:05:01.149Z,100
2018-12-13T11:06:09.217Z,105
2018-12-13T11:07:17.244Z,105
2018-12-13T11:08:25.285Z,105
2018-12-13T11:09:33.371Z,105
2018-12-13T11:10:41.407Z,105
2018-12-13T11:11:49.472Z,95
2018-12-13T11:12:57.519Z,90
2018-12-13T11:14:05.718Z,80
2018-12-13T11:15:13.614Z,75
2018-12-13T11:16:21.683Z,80
2018-12-13T11:17:29.730Z,80
2018-12-13T11:18:37.787Z,100
2018-12-13T11:19:45.820Z,110
2018-12-13T11:20:53.907Z,125
2018-12-13T11:22:01.944Z,150
2018-12-13T11:23:10.034Z,165
2018-12-13T11:24:18.098Z,125
2018-12-13T11:25:26.613Z,115
2018-12-13T11:26:34.206Z,125
2018-12-13T11:27:42.232Z,120
2018-12-13T11:28:50.272Z,110
2018-12-13T11:29:58.325Z,100
2018-12-13T11:31:06.581Z,115
2018-12-13T11:32:14.455Z,120
2018-12-13T11:33:22.488Z,110
2018-12-13T11:34:30.552Z,80
2018-12-13T11:35:38.701Z,75
2018-12-13T11:36:46.668Z,100
2018-12-13T11:37:54.785Z,145
2018-12-13T11:39:05.793Z,115
2018-12-13T11:40:12.647Z,110
2018-12-13T11:41:18.869Z,100
2018-12-13T11:42:27.251Z,80
2018-12-13T11:43:35.359Z,70
2018-12-13T11:44:43.165Z,80
2018-12-13T11:45:51.295Z,100
2018-12-13T11:46:59.135Z,125
2018-12-13T11:48:07.186Z,90
2018-12-13T11:49:15.215Z,80
2018-12-13T11:50:23.623Z,75
2018-12-13T11:51:31.359Z,60
2018-12-13T11:52:39.736Z,65
2018-12-13T11:53:47.443Z,60
2018-12-13T11:54:55.489Z,80
2018-12-13T11:56:03.570Z,90
2018-12-13T11:57:11.617Z,85
2018-12-13T11:58:19.673Z,100
2018-12-13T11:59:27.730Z,80
2018-12-13T12:00:36.124Z,80
2018-12-13T12:01:43.826Z,75
2018-12-13T12:02:51.891Z,85
2018-12-13T12:04:01.444Z,85
2018-12-13T12:05:07.992Z,70
2018-12-13T12:06:16.101Z,85
2018-12-13T12:07:24.099Z,85
2018-12-13T12:08:32.156Z,85
2018-12-13T12:09:40.212Z,95
2018-12-13T12:10:48.262Z,75
2018-12-13T12:11:56.302Z,80
2018-12-13T12:13:04.811Z,100
2018-12-13T12:14:12.836Z,110
2018-12-13T12:15:20.874Z,120
2018-12-13T12:16:28.754Z,120
2018-12-13T12:17:36.593Z,130
2018-12-13T12:18:44.677Z,165
2018-12-13T12:19:52.691Z,200
2018-12-13T12:21:00.731Z,170
2018-12-13T12:22:08.838Z,135
2018-12-13T12:23:16.841Z,140
2018-12-13T12:24:25.973Z,125
2018-12-13T12:25:32.956Z,125
2018-12-13T12:26:41.028Z,120
2018-12-13T12:27:49.284Z,125
2018-12-13T12:28:57.122Z,110
2018-12-13T12:30:05.289Z,70
2018-12-13T12:31:13.223Z,75
2018-12-13T12:32:21.305Z,80
2018-12-13T12:33:29.683Z,120
2018-12-13T12:34:37.434Z,125
2018-12-13T12:35:45.435Z,110
2018-12-13T12:36:53.493Z,120
2018-12-13T12:38:01.540Z,95
2018-12-13T12:39:09.605Z,85
2018-12-13T12:40:17.674Z,85
2018-12-13T12:41:25.686Z,80
2018-12-13T12:42:34.039Z,65
2018-12-13T12:43:41.826Z,80
2018-12-13T12:44:49.877Z,105
2018-12-13T12:45:58.531Z,115
2018-12-13T12:47:06.030Z,90
2018-12-13T12:48:14.030Z,90
2018-12-13T12:49:22.097Z,95
2018-12-13T12:50:30.527Z,55
2018-12-13T12:51:38.191Z,65
2018-12-13T12:52:46.308Z,65
2018-12-13T12:53:54.363Z,95
2018-12-13T12:55:02.367Z,120
2018-12-13T12:56:10.409Z,135
2018-12-13T12:57:18.461Z,155
2018-12-13T12:58:26.580Z,180
2018-12-13T12:59:34.624Z,180
2018-12-13T13:00:42.623Z,140
2018-12-13T13:01:50.673Z,140
2018-12-13T13:02:58.753Z,120
2018-12-13T13:04:06.787Z,90
2018-12-13T13:05:14.840Z,80
2018-12-13T13:06:22.889Z,85
2018-12-13T13:07:30.955Z,90
2018-12-13T13:08:39.007Z,90
2018-12-13T13:09:47.056Z,85
2018-12-13T13:10:55.549Z,85
2018-12-13T13:12:03.179Z,110
2018-12-13T13:13:11.225Z,140
2018-12-13T13:14:19.266Z,155
2018-12-13T13:15:27.321Z,150
2018-12-13T13:16:35.362Z,155
2018-12-13T13:17:43.425Z,105
2018-12-13T13:18:51.498Z,100
2018-12-13T13:19:59.529Z,105
2018-12-13T13:21:07.599Z,105
2018-12-13T13:22:15.627Z,90
2018-12-13T13:23:23.698Z,100
2018-12-13T13:24:31.735Z,100
2018-12-13T13:25:39.827Z,105
2018-12-13T13:26:48.014Z,135
2018-12-13T13:27:55.899Z,145
2018-12-13T13:29:04.700Z,120
2018-12-13T13:30:12.032Z,115
2018-12-13T13:31:20.115Z,125
2018-12-13T13:32:28.220Z,105
2018-12-13T13:33:36.187Z,110
2018-12-13T13:34:44.255Z,135
2018-12-13T13:35:52.285Z,125
2018-12-13T13:37:00.382Z,120
2018-12-13T13:38:08.410Z,120
2018-12-13T13:39:16.472Z,115
2018-12-13T13:40:24.515Z,110
2018-12-13T13:41:32.569Z,110
2018-12-13T13:42:40.634Z,115
2018-12-13T13:43:48.663Z,125
2018-12-13T13:44:56.706Z,120
2018-12-13T13:46:04.767Z,110
2018-12-13T13:47:12.818Z,120
2018-12-13T13:48:20.888Z,115
2018-12-13T13:49:28.923Z,100
2018-12-13T13:50:36.989Z,100
2018-12-13T13:51:45.016Z,110
2018-12-13T13:52:53.099Z,120
2018-12-13T13:54:01.140Z,115
2018-12-13T13:55:09.209Z,105
2018-12-13T13:56:17.240Z,105
2018-12-13T13:57:25.291Z,105
2018-12-13T13:58:33.376Z,105
2018-12-13T13:59:41.412Z,95
2018-12-13T14:00:49.468Z,105
2018-12-13T14:01:57.535Z,105
2018-12-13T14:03:05.547Z,110
2018-12-13T14:04:13.626Z,105
2018-12-13T14:05:21.676Z,105
2018-12-13T14:06:29.761Z,95
2018-12-13T14:07:37.787Z,75
2018-12-13T14:08:45.867Z,65
2018-12-13T14:09:53.901Z,75
2018-12-13T14:11:01.969Z,70
2018-12-13T14:12:10.011Z,65
2018-12-13T14:13:18.049Z,55
2018-12-13T14:14:26.121Z,65
2018-12-13T14:15:34.181Z,65
2018-12-13T14:16:42.211Z,65
2018-12-13T14:17:50.276Z,65
2018-12-13T14:18:58.328Z,60
2018-12-13T14:20:06.395Z,55
2018-12-13T14:21:14.442Z,50
2018-12-13T14:22:22.492Z,55
2018-12-13T14:23:30.553Z,50
2018-12-13T14:24:38.600Z,45
2018-12-13T14:25:46.661Z,40
2018-12-13T14:26:54.706Z,45
2018-12-13T14:28:02.755Z,40
2018-12-13T14:29:10.825Z,45
2018-12-13T14:30:18.868Z,50
2018-12-13T14:31:26.917Z,55
2018-12-13T14:32:34.956Z,50
2018-12-13T14:33:43.028Z,50
2018-12-13T14:34:57.328Z,50
2018-12-13T14:35:59.133Z,50
2018-12-13T14:37:07.182Z,50
2018-12-13T14:38:15.236Z,45
2018-12-13T14:39:23.307Z,45
2018-12-13T14:40:31.352Z,45
2018-12-13T14:41:39.404Z,45
2018-12-13T14:42:47.462Z,45
2018-12-13T14:43:55.479Z,45
2018-12-13T14:45:03.551Z,45
2018-12-13T14:46:11.606Z,50
2018-12-13T14:47:19.669Z,45
2018-12-13T14:48:27.722Z,40
2018-12-13T14:49:35.747Z,40
2018-12-13T14:50:43.819Z,45
2018-12-13T14:51:51.890Z,40
2018-12-13T14:52:59.938Z,40
2018-12-13T14:54:07.986Z,40
2018-12-13T14:55:16.041Z,40
2018-12-13T14:56:24.109Z,40
2018-12-13T14:57:32.146Z,40
2018-12-13T14:58:40.202Z,35
2018-12-13T14:59:48.254Z,35
2018-12-13T15:00:56.320Z,35
2018-12-13T15:02:04.353Z,30
2018-12-13T15:03:12.404Z,30
2018-12-13T15:04:20.470Z,25
2018-12-13T15:05:28.532Z,25
2018-12-13T15:06:36.575Z,25
2018-12-13T15:07:44.618Z,25
2018-12-13T15:08:52.687Z,20
2018-12-13T15:10:00.732Z,20
2018-12-13T15:11:08.789Z,15
2018-12-13T15:12:16.842Z,15
2018-12-13T15:13:24.869Z,15
2018-12-13T15:14:32.957Z,15
2018-12-13T15:15:41.001Z,10
2018-12-13T15:16:49.049Z,10
2018-12-13T15:17:57.117Z,10
2018-12-13T15:19:05.138Z,10
2018-12-13T15:20:13.205Z,10
2018-12-13T15:21:21.261Z,10
2018-12-13T15:22:29.360Z,10
2018-12-13T15:23:37.374Z,10
2018-12-13T15:24:45.394Z,5
2018-12-13T15:25:53.482Z,5
2018-12-13T15:27:01.555Z,0
2018-12-13T15:28:09.607Z,0
2018-12-13T15:29:17.638Z,0
2018-12-13T15:30:25.660Z,0
2018-12-13T15:31:33.732Z,0
2018-12-13T15:32:41.797Z,0
2018-12-13T15:33:49.834Z,0
2018-12-13T15:34:57.895Z,0
2018-12-13T15:36:05.958Z,0
2018-12-13T15:37:14.003Z,0
2018-12-13T15:38:22.062Z,0
2018-12-13T15:39:30.108Z,0
2018-12-13T15:40:38.233Z,0
2018-12-13T15:41:46.232Z,0
2018-12-13T15:42:54.658Z,0
2018-12-13T15:44:02.328Z,0
2018-12-13T15:45:10.755Z,0
2018-12-13T15:46:18.445Z,0
2018-12-13T15:47:26.835Z,0
2018-12-13T15:48:34.537Z,0
2018-12-13T15:49:42.589Z,0
2018-12-13T15:50:50.684Z,0
2018-12-13T15:51:58.704Z,0
2018-12-13T15:53:06.744Z,0
2018-12-13T15:54:14.796Z,0
2018-12-13T15:55:22.879Z,0
2018-12-13T15:56:30.890Z,0
2018-12-13T15:57:38.971Z,0
2018-12-13T15:58:47.022Z,0
2018-12-13T15:59:55.045Z,0
2018-12-13T16:01:03.120Z,0
2018-12-13T16:02:11.172Z,0
2018-12-13T16:03:19.277Z,0
2018-12-13T16:04:27.285Z,0
2018-12-13T16:05:35.298Z,0
2018-12-13T16:06:43.397Z,0
2018-12-13T16:07:51.434Z,0
2018-12-13T16:08:59.509Z,0
2018-12-13T16:10:07.549Z,0
2018-12-13T16:11:15.573Z,0
2018-12-13T16:12:23.649Z,0
2018-12-13T16:13:31.725Z,0
2018-12-13T16:14:39.737Z,0
2018-12-13T16:15:47.807Z,0
2018-12-13T16:16:55.833Z,0
2018-12-13T16:18:03.936Z,0
2018-12-13T16:19:11.984Z,0
2018-12-13T16:20:20.020Z,0
2018-12-13T16:21:28.080Z,0